Noumea Magenta Airport


Codes: NWWM/GEA
Name: Noumea Magenta Airport
City: Noumea
Country: New Caledonia
Elevation: 10 ft.
Wikipedia:

Photos at Noumea Magenta Airport


   Photos courtesy of SpottingLog. You can add your own sightings and photos by signing up for a free trial today.



No photos found.

Weather at Noumea Magenta Airport


Time (UTC)DescriptionTempratureWindCloud coverageVisibilityPressureHumidity
16-Jun-2024 12:00Broken Clouds22°C9 mph, N53%10000m1014hPa91%
16-Jun-2024 15:00Few Clouds21°C7 mph, N21%10000m1013hPa84%
16-Jun-2024 18:00Clear Sky19°C7 mph, NW0%10000m1012hPa76%
16-Jun-2024 21:00Clear Sky21°C7 mph, NW4%10000m1013hPa66%
17-Jun-2024 00:00Clear Sky24°C13 mph, W2%10000m1012hPa63%
17-Jun-2024 03:00Clear Sky23°C16 mph, W3%10000m1010hPa67%
17-Jun-2024 06:00Light Rain22°C16 mph, W6%10000m1011hPa76%
17-Jun-2024 09:00Light Rain21°C9 mph, W21%10000m1013hPa84%
17-Jun-2024 12:00Light Rain20°C9 mph, NW43%10000m1014hPa85%
17-Jun-2024 15:00Light Rain20°C9 mph, NW51%10000m1013hPa85%
17-Jun-2024 18:00Light Rain20°C11 mph, NW34%10000m1013hPa82%
17-Jun-2024 21:00Light Rain21°C13 mph, W95%10000m1014hPa73%
18-Jun-2024 00:00Broken Clouds23°C13 mph, W72%10000m1014hPa60%
18-Jun-2024 03:00Scattered Clouds23°C18 mph, W29%10000m1012hPa58%
18-Jun-2024 06:00Few Clouds22°C13 mph, W17%10000m1012hPa64%
18-Jun-2024 09:00Clear Sky21°C11 mph, NW0%10000m1014hPa68%
18-Jun-2024 12:00Light Rain20°C9 mph, W3%10000m1015hPa71%
18-Jun-2024 15:00Light Rain20°C9 mph, NW11%10000m1014hPa69%
18-Jun-2024 18:00Few Clouds20°C9 mph, W12%10000m1014hPa64%
18-Jun-2024 21:00Clear Sky21°C7 mph, NW6%10000m1016hPa57%
19-Jun-2024 00:00Clear Sky22°C9 mph, SW4%10000m1016hPa51%
19-Jun-2024 03:00Clear Sky22°C7 mph, SW3%10000m1014hPa55%
19-Jun-2024 06:00Clear Sky20°C4 mph, SW1%10000m1015hPa59%
19-Jun-2024 09:00Clear Sky19°C0 mph, SW0%10000m1017hPa62%
19-Jun-2024 12:00Clear Sky19°C2 mph, E0%10000m1017hPa66%
19-Jun-2024 15:00Clear Sky18°C4 mph, NE0%10000m1017hPa72%
19-Jun-2024 18:00Clear Sky18°C4 mph, NE0%10000m1017hPa78%
19-Jun-2024 21:00Scattered Clouds19°C4 mph, NE43%10000m1018hPa74%
20-Jun-2024 00:00Broken Clouds22°C7 mph, SE51%10000m1018hPa66%
20-Jun-2024 03:00Scattered Clouds22°C11 mph, SE37%10000m1016hPa67%
20-Jun-2024 06:00Scattered Clouds21°C13 mph, SE38%10000m1017hPa73%
20-Jun-2024 09:00Few Clouds20°C9 mph, E17%10000m1019hPa77%
20-Jun-2024 12:00Few Clouds19°C7 mph, E17%10000m1019hPa77%
20-Jun-2024 15:00Clear Sky19°C7 mph, NE0%10000m1018hPa77%
20-Jun-2024 18:00Clear Sky19°C7 mph, NE2%10000m1018hPa75%
20-Jun-2024 21:00Broken Clouds21°C7 mph, E62%10000m1020hPa63%
21-Jun-2024 00:00Scattered Clouds23°C9 mph, SE46%10000m1019hPa55%
21-Jun-2024 03:00Clear Sky23°C16 mph, SE4%10000m1017hPa61%
21-Jun-2024 06:00Clear Sky22°C13 mph, SE5%10000m1018hPa64%
21-Jun-2024 09:00Scattered Clouds21°C11 mph, E31%10000m1020hPa62%